Time;durP1;ratioP1;P1;durP2;ratioP2;P2;SDS_P1;SDS_P2;PMS_P1;PMS_P2;Temp;Humidity;BMP_temperature;BMP_pressure;BME280_temperature;BME280_humidity;BME280_pressure;Samples;Min_cycle;Max_cycle;Signal;HPM_P1;HPM_P2
2021/12/07 00:01:47;;;;;;;7.03;5.40;;;;;;;;;;4870746;29;20056;-72
2021/12/07 00:04:13;;;;;;;7.28;5.88;;;;;;;;;;4887116;29;20059;-72
2021/12/07 00:06:39;;;;;;;6.43;5.35;;;;;;;;;;4886899;29;20044;-72
2021/12/07 00:09:08;;;;;;;7.65;6.30;;;;;;;;;;4873864;29;20069;-72
2021/12/07 00:11:34;;;;;;;7.53;5.70;;;;;;;;;;4886588;29;20068;-72
2021/12/07 00:14:10;;;;;;;7.22;5.57;;;;;;;;;;4871922;29;20416;-72
2021/12/07 00:16:36;;;;;;;7.07;6.30;;;;;;;;;;4872958;29;20071;-72
2021/12/07 00:19:12;;;;;;;7.80;5.82;;;;;;;;;;4884289;29;20071;-72
2021/12/07 00:21:39;;;;;;;8.32;6.32;;;;;;;;;;4874003;29;20104;-72
2021/12/07 00:24:05;;;;;;;8.60;6.70;;;;;;;;;;4870520;29;20041;-72
2021/12/07 00:26:31;;;;;;;8.93;6.70;;;;;;;;;;4869823;29;20048;-72
2021/12/07 00:28:59;;;;;;;8.50;6.88;;;;;;;;;;4871567;29;20530;-72
2021/12/07 00:31:35;;;;;;;8.32;6.85;;;;;;;;;;4869601;29;20124;-72
2021/12/07 00:36:37;;;;;;;9.15;6.82;;;;;;;;;;4871105;29;20044;-72
2021/12/07 00:39:07;;;;;;;9.18;7.43;;;;;;;;;;4870514;29;20048;-72
2021/12/07 00:41:33;;;;;;;9.60;7.82;;;;;;;;;;4869543;29;20144;-72
2021/12/07 00:44:02;;;;;;;10.93;8.00;;;;;;;;;;4871123;29;20744;-72
2021/12/07 00:46:28;;;;;;;9.77;7.95;;;;;;;;;;4869579;29;20057;-72
2021/12/07 00:48:54;;;;;;;10.57;8.15;;;;;;;;;;4871692;29;20517;-72
2021/12/07 00:51:20;;;;;;;9.82;7.90;;;;;;;;;;4868513;29;20049;-72
2021/12/07 00:53:46;;;;;;;11.27;8.30;;;;;;;;;;4869892;29;20047;-72
2021/12/07 00:56:15;;;;;;;13.70;9.30;;;;;;;;;;4870105;29;20093;-72
2021/12/07 00:58:44;;;;;;;13.20;9.55;;;;;;;;;;4868139;29;20053;-72
2021/12/07 01:01:15;;;;;;;12.05;9.27;;;;;;;;;;4870949;29;20052;-72
2021/12/07 01:03:42;;;;;;;12.25;9.27;;;;;;;;;;4886393;29;20200;-72
2021/12/07 01:09:00;;;;;;;12.18;9.25;;;;;;;;;;4875693;29;20104;-72
2021/12/07 01:25:13;;;;;;;14.48;10.20;;;;;;;;;;4872782;29;20080;-72
2021/12/07 01:27:40;;;;;;;14.23;10.65;;;;;;;;;;4879253;29;20131;-72
2021/12/07 01:30:21;;;;;;;14.57;11.35;;;;;;;;;;4895276;29;20040;-72
2021/12/07 01:33:16;;;;;;;14.63;11.05;;;;;;;;;;4879861;29;20195;-72
2021/12/07 01:38:32;;;;;;;15.55;12.20;;;;;;;;;;4874185;29;20045;-72
2021/12/07 01:41:24;;;;;;;17.85;11.93;;;;;;;;;;4872802;29;20672;-72
2021/12/07 01:44:06;;;;;;;16.50;11.23;;;;;;;;;;4865924;29;20044;-72
2021/12/07 01:46:47;;;;;;;16.30;11.77;;;;;;;;;;4873846;29;20088;-73
2021/12/07 02:00:36;;;;;;;15.13;11.02;;;;;;;;;;4876283;29;20500;-72
2021/12/07 02:03:02;;;;;;;16.83;11.60;;;;;;;;;;4875609;29;20056;-72
2021/12/07 02:05:28;;;;;;;14.90;10.63;;;;;;;;;;4872002;29;20061;-72
2021/12/07 02:07:54;;;;;;;17.48;11.60;;;;;;;;;;4878794;29;20048;-72
2021/12/07 02:10:24;;;;;;;16.05;11.18;;;;;;;;;;4892631;29;20045;-72
2021/12/07 02:12:51;;;;;;;16.73;10.57;;;;;;;;;;4873819;29;20497;-72
2021/12/07 02:15:22;;;;;;;17.42;10.98;;;;;;;;;;4876273;29;20057;-72
2021/12/07 02:17:49;;;;;;;18.08;11.52;;;;;;;;;;4871077;29;20072;-72
2021/12/07 02:20:16;;;;;;;14.65;10.90;;;;;;;;;;4891256;29;20054;-72
2021/12/07 02:22:42;;;;;;;16.75;11.50;;;;;;;;;;4873494;29;20063;-72
2021/12/07 02:25:09;;;;;;;16.95;10.77;;;;;;;;;;4875369;29;20063;-72
2021/12/07 02:27:35;;;;;;;11.90;6.20;;;;;;;;;;4874034;29;20704;-72
2021/12/07 02:30:02;;;;;;;9.88;4.00;;;;;;;;;;4875573;29;20068;-72
2021/12/07 02:32:28;;;;;;;12.38;4.05;;;;;;;;;;4871267;29;20049;-72
2021/12/07 02:34:58;;;;;;;14.40;3.80;;;;;;;;;;4876115;29;20102;-72
2021/12/07 02:37:29;;;;;;;11.35;3.70;;;;;;;;;;4890868;29;20048;-72
2021/12/07 02:39:55;;;;;;;15.20;3.80;;;;;;;;;;4871328;29;20511;-72
2021/12/07 02:42:21;;;;;;;9.48;3.50;;;;;;;;;;4874890;29;20036;-72
2021/12/07 02:44:47;;;;;;;16.85;3.85;;;;;;;;;;4873479;29;20404;-72
2021/12/07 02:47:13;;;;;;;15.20;3.78;;;;;;;;;;4873571;29;20523;-72
2021/12/07 02:49:42;;;;;;;12.55;3.45;;;;;;;;;;4873398;29;20390;-72
2021/12/07 02:52:08;;;;;;;11.43;3.47;;;;;;;;;;4870959;29;20063;-72
2021/12/07 02:54:36;;;;;;;13.70;3.38;;;;;;;;;;4872230;29;20557;-72
2021/12/07 02:57:02;;;;;;;10.65;2.40;;;;;;;;;;4875608;29;20052;-72
2021/12/07 02:59:29;;;;;;;7.18;2.55;;;;;;;;;;4872103;29;20060;-72
2021/12/07 03:02:03;;;;;;;7.05;2.38;;;;;;;;;;4871963;29;20072;-72
2021/12/07 03:04:37;;;;;;;;;;;;;;;;;;4890929;29;20066;-72
2021/12/07 03:28:21;;;;;;;11.70;2.67;;;;;;;;;;4874975;29;20068;-72
2021/12/07 03:30:48;;;;;;;8.13;2.20;;;;;;;;;;4874593;29;20072;-72
2021/12/07 03:33:14;;;;;;;7.75;2.15;;;;;;;;;;4874820;29;20139;-72
2021/12/07 03:35:40;;;;;;;4.60;1.80;;;;;;;;;;4874879;29;20044;-73
2021/12/07 03:38:07;;;;;;;6.15;2.22;;;;;;;;;;4872591;29;20052;-72
2021/12/07 03:40:33;;;;;;;6.22;2.00;;;;;;;;;;4869738;29;20480;-72
2021/12/07 03:42:59;;;;;;;5.95;1.92;;;;;;;;;;4872453;29;20512;-72
2021/12/07 03:45:25;;;;;;;3.88;1.83;;;;;;;;;;4869846;29;20079;-72
2021/12/07 03:47:52;;;;;;;9.80;2.33;;;;;;;;;;4872777;29;20124;-72
2021/12/07 03:50:21;;;;;;;10.05;2.65;;;;;;;;;;4887948;29;20044;-72
2021/12/07 03:52:47;;;;;;;11.90;2.88;;;;;;;;;;4869270;29;21988;-73
2021/12/07 03:55:13;;;;;;;10.20;2.47;;;;;;;;;;4869351;29;20045;-73
2021/12/07 03:57:39;;;;;;;6.63;2.17;;;;;;;;;;4870524;29;20044;-72
2021/12/07 04:00:10;;;;;;;8.10;2.28;;;;;;;;;;4872934;29;20041;-72
2021/12/07 04:02:40;;;;;;;8.85;2.50;;;;;;;;;;4890303;29;20080;-72
2021/12/07 04:05:13;;;;;;;7.43;2.30;;;;;;;;;;4887199;29;20041;-73
2021/12/07 04:07:39;;;;;;;11.30;2.60;;;;;;;;;;4889812;29;20060;-73
2021/12/07 04:10:06;;;;;;;8.40;2.70;;;;;;;;;;4871963;29;20045;-72
2021/12/07 04:12:32;;;;;;;7.57;2.42;;;;;;;;;;4871023;29;20084;-72
2021/12/07 04:14:58;;;;;;;8.45;2.50;;;;;;;;;;4869795;29;20268;-72
2021/12/07 04:17:24;;;;;;;9.82;2.25;;;;;;;;;;4871380;29;20052;-72
2021/12/07 04:19:50;;;;;;;9.52;2.40;;;;;;;;;;4869063;29;20052;-72
2021/12/07 04:22:16;;;;;;;10.40;2.90;;;;;;;;;;4870477;29;20088;-72
2021/12/07 04:24:43;;;;;;;7.00;2.40;;;;;;;;;;4870489;29;20052;-72
2021/12/07 04:27:09;;;;;;;7.80;2.30;;;;;;;;;;4867855;29;20059;-72
2021/12/07 04:29:35;;;;;;;9.80;3.35;;;;;;;;;;4887511;29;20044;-72
2021/12/07 04:32:01;;;;;;;10.40;2.50;;;;;;;;;;4869957;29;20132;-72
2021/12/07 04:34:27;;;;;;;9.25;2.50;;;;;;;;;;4872500;29;20083;-72
2021/12/07 04:36:53;;;;;;;9.43;2.63;;;;;;;;;;4870219;29;20056;-72
2021/12/07 04:39:19;;;;;;;9.80;2.65;;;;;;;;;;4869651;29;20116;-72
2021/12/07 04:41:47;;;;;;;10.55;2.67;;;;;;;;;;4869926;29;20064;-72
2021/12/07 04:44:13;;;;;;;8.20;2.47;;;;;;;;;;4871839;29;20053;-71
2021/12/07 04:59:54;;;;;;;8.65;2.25;;;;;;;;;;4880907;29;20506;-72
2021/12/07 05:02:20;;;;;;;8.32;2.20;;;;;;;;;;4884841;29;20552;-72
2021/12/07 05:04:46;;;;;;;9.60;2.35;;;;;;;;;;4870630;29;20044;-72
2021/12/07 05:07:21;;;;;;;10.40;2.50;;;;;;;;;;4870152;29;20135;-72
2021/12/07 05:14:43;;;;;;;10.30;3.25;;;;;;;;;;4869322;29;20056;-72
2021/12/07 05:25:51;;;;;;;8.90;2.78;;;;;;;;;;4869471;29;20524;-72
2021/12/07 05:39:32;;;;;;;11.63;2.30;;;;;;;;;;4884881;29;20164;-72
2021/12/07 05:41:58;;;;;;;9.57;2.45;;;;;;;;;;4869689;29;20063;-72
2021/12/07 05:44:24;;;;;;;8.82;2.92;;;;;;;;;;4868351;29;20060;-72
2021/12/07 05:46:50;;;;;;;11.57;2.50;;;;;;;;;;4870327;29;20056;-72
2021/12/07 05:49:16;;;;;;;7.15;1.77;;;;;;;;;;4885452;29;20092;-73
2021/12/07 05:51:42;;;;;;;7.82;2.13;;;;;;;;;;4888465;29;20052;-72
2021/12/07 05:54:09;;;;;;;9.75;2.30;;;;;;;;;;4889924;29;20485;-72
2021/12/07 05:56:34;;;;;;;6.85;2.15;;;;;;;;;;4873446;29;20405;-73
2021/12/07 05:59:00;;;;;;;6.35;2.20;;;;;;;;;;4873080;29;20048;-72
2021/12/07 06:01:26;;;;;;;4.68;2.20;;;;;;;;;;4872872;29;20061;-72
2021/12/07 06:03:52;;;;;;;6.88;2.45;;;;;;;;;;4872222;29;20510;-72
2021/12/07 06:06:18;;;;;;;9.18;2.10;;;;;;;;;;4872792;29;20056;-72
2021/12/07 06:08:44;;;;;;;6.28;2.17;;;;;;;;;;4873298;29;20048;-72
2021/12/07 06:11:10;;;;;;;9.88;4.05;;;;;;;;;;4872775;29;20618;-72
2021/12/07 06:13:37;;;;;;;12.48;4.95;;;;;;;;;;4871494;29;20060;-72
2021/12/07 06:16:07;;;;;;;8.13;2.58;;;;;;;;;;4892533;29;20052;-72
2021/12/07 06:18:33;;;;;;;14.80;3.17;;;;;;;;;;4877114;29;20087;-72
2021/12/07 06:20:59;;;;;;;10.73;2.50;;;;;;;;;;4892621;29;20074;-72
2021/12/07 06:23:25;;;;;;;9.18;3.03;;;;;;;;;;4889282;29;20048;-72
2021/12/07 06:25:54;;;;;;;9.18;2.80;;;;;;;;;;4892508;29;20047;-72
2021/12/07 06:28:20;;;;;;;12.27;2.78;;;;;;;;;;4872807;29;20548;-72
2021/12/07 06:30:47;;;;;;;10.57;2.78;;;;;;;;;;4870465;29;20068;-72
2021/12/07 06:33:13;;;;;;;8.90;4.28;;;;;;;;;;4872455;29;20064;-72
2021/12/07 06:35:40;;;;;;;9.57;3.08;;;;;;;;;;4872530;29;20076;-72
2021/12/07 06:38:06;;;;;;;12.70;3.40;;;;;;;;;;4874135;29;20045;-73
2021/12/07 06:40:32;;;;;;;10.57;2.70;;;;;;;;;;4870608;29;20412;-73
2021/12/07 06:43:00;;;;;;;11.80;2.80;;;;;;;;;;4873048;29;20060;-72
2021/12/07 06:45:26;;;;;;;10.95;2.60;;;;;;;;;;4871337;29;20087;-72
2021/12/07 06:47:53;;;;;;;12.10;2.92;;;;;;;;;;4872302;29;20048;-73
2021/12/07 06:50:20;;;;;;;13.48;3.10;;;;;;;;;;4871457;29;20131;-72
2021/12/07 06:52:46;;;;;;;9.60;2.85;;;;;;;;;;4886727;29;20040;-72
2021/12/07 06:55:12;;;;;;;12.48;2.53;;;;;;;;;;4888071;29;20120;-72
2021/12/07 06:57:38;;;;;;;12.27;2.90;;;;;;;;;;4873334;29;20060;-72
2021/12/07 07:00:06;;;;;;;7.93;2.67;;;;;;;;;;4869566;29;20508;-72
2021/12/07 07:02:32;;;;;;;9.85;2.70;;;;;;;;;;4873058;29;20056;-72
2021/12/07 07:04:58;;;;;;;10.48;2.67;;;;;;;;;;4871360;29;20175;-72
2021/12/07 07:07:24;;;;;;;7.57;2.40;;;;;;;;;;4872006;29;20044;-72
2021/12/07 07:09:51;;;;;;;11.00;2.75;;;;;;;;;;4886921;29;20052;-72
2021/12/07 07:12:17;;;;;;;10.10;2.85;;;;;;;;;;4872947;29;20131;-72
2021/12/07 07:14:43;;;;;;;10.75;2.60;;;;;;;;;;4869694;29;20139;-72
2021/12/07 07:17:09;;;;;;;12.32;2.75;;;;;;;;;;4872608;29;20096;-72
2021/12/07 07:19:35;;;;;;;10.30;3.10;;;;;;;;;;4872259;29;20053;-72
2021/12/07 07:22:02;;;;;;;7.13;2.78;;;;;;;;;;4872211;29;20060;-72
2021/12/07 07:24:29;;;;;;;11.70;2.60;;;;;;;;;;4870428;29;20048;-72
2021/12/07 07:26:55;;;;;;;10.38;2.95;;;;;;;;;;4873636;29;20048;-72
2021/12/07 07:29:21;;;;;;;10.32;3.08;;;;;;;;;;4890227;29;20131;-72
2021/12/07 07:31:53;;;;;;;7.90;2.90;;;;;;;;;;4874675;29;20132;-72
2021/12/07 07:34:19;;;;;;;9.23;2.50;;;;;;;;;;4874453;29;20053;-77
2021/12/07 07:36:49;;;;;;;11.88;2.63;;;;;;;;;;4868281;29;20071;-72
2021/12/07 07:39:15;;;;;;;9.13;2.28;;;;;;;;;;4871521;29;20049;-73
2021/12/07 07:41:41;;;;;;;6.38;2.40;;;;;;;;;;4869914;29;20083;-73
2021/12/07 07:44:06;;;;;;;10.90;2.25;;;;;;;;;;4875412;29;20092;-72
2021/12/07 07:46:32;;;;;;;9.00;2.38;;;;;;;;;;4888824;29;20505;-72
2021/12/07 07:49:00;;;;;;;11.07;2.38;;;;;;;;;;4891136;29;20051;-73
2021/12/07 07:51:26;;;;;;;10.75;2.22;;;;;;;;;;4875532;29;20540;-72
2021/12/07 07:53:54;;;;;;;9.32;2.22;;;;;;;;;;4870305;29;20735;-73
2021/12/07 07:56:20;;;;;;;6.95;2.20;;;;;;;;;;4891581;29;20147;-73
2021/12/07 07:58:46;;;;;;;4.43;2.22;;;;;;;;;;4873714;29;20055;-72
2021/12/07 08:01:12;;;;;;;9.35;2.55;;;;;;;;;;4871460;29;20567;-72
2021/12/07 08:03:39;;;;;;;9.60;2.28;;;;;;;;;;4875802;29;20080;-73
2021/12/07 08:06:05;;;;;;;9.57;2.63;;;;;;;;;;4886969;29;20079;-72
2021/12/07 08:08:31;;;;;;;7.90;2.20;;;;;;;;;;4873187;29;20037;-72
2021/12/07 08:10:57;;;;;;;9.10;2.70;;;;;;;;;;4873572;29;20119;-73
2021/12/07 08:13:23;;;;;;;9.25;2.70;;;;;;;;;;4871982;29;20056;-73
2021/12/07 08:15:49;;;;;;;10.15;2.90;;;;;;;;;;4872920;29;20509;-73
2021/12/07 08:18:16;;;;;;;9.05;2.47;;;;;;;;;;4873633;29;20124;-73
2021/12/07 08:20:44;;;;;;;11.00;2.70;;;;;;;;;;4887645;29;20055;-73
2021/12/07 08:23:10;;;;;;;5.70;2.80;;;;;;;;;;4870163;29;20100;-73
2021/12/07 08:25:38;;;;;;;7.28;2.38;;;;;;;;;;4876901;29;20051;-73
2021/12/07 08:28:07;;;;;;;13.30;3.00;;;;;;;;;;4876700;29;20044;-73
2021/12/07 08:30:33;;;;;;;9.20;2.65;;;;;;;;;;4877224;29;20060;-73
2021/12/07 08:32:59;;;;;;;9.00;2.60;;;;;;;;;;4871238;29;20055;-73
2021/12/07 08:35:25;;;;;;;13.00;3.00;;;;;;;;;;4868127;29;20045;-72
2021/12/07 08:37:51;;;;;;;11.82;2.92;;;;;;;;;;4873034;29;20417;-73
2021/12/07 08:40:18;;;;;;;11.48;3.05;;;;;;;;;;4872155;29;20060;-73
2021/12/07 08:42:44;;;;;;;16.15;4.28;;;;;;;;;;4836877;29;20113;-73
2021/12/07 08:45:11;;;;;;;11.10;3.42;;;;;;;;;;4873617;29;20041;-73
2021/12/07 08:47:37;;;;;;;11.50;3.70;;;;;;;;;;4877041;29;20048;-73
2021/12/07 08:50:05;;;;;;;10.25;3.03;;;;;;;;;;4873575;29;20116;-73
2021/12/07 08:52:31;;;;;;;6.75;2.88;;;;;;;;;;4889545;29;20052;-73
2021/12/07 09:00:17;;;;;;;13.75;3.53;;;;;;;;;;4875364;29;20488;-73
2021/12/07 09:02:43;;;;;;;7.00;2.75;;;;;;;;;;4872653;29;20055;-73
2021/12/07 09:05:10;;;;;;;11.00;3.50;;;;;;;;;;4892685;29;20051;-73
2021/12/07 09:07:36;;;;;;;9.20;3.47;;;;;;;;;;4873446;29;20090;-73
2021/12/07 09:10:04;;;;;;;11.65;2.85;;;;;;;;;;4873766;29;20517;-73
2021/12/07 09:12:30;;;;;;;11.93;3.28;;;;;;;;;;4874792;29;20063;-73
2021/12/07 09:14:56;;;;;;;8.43;3.92;;;;;;;;;;4874240;29;20051;-73
2021/12/07 09:17:22;;;;;;;15.55;3.70;;;;;;;;;;4868150;29;20059;-73
2021/12/07 09:19:48;;;;;;;11.23;3.08;;;;;;;;;;4889195;29;20061;-73
2021/12/07 09:22:15;;;;;;;11.07;3.53;;;;;;;;;;4871706;29;20408;-73
2021/12/07 09:24:41;;;;;;;9.95;3.13;;;;;;;;;;4874945;29;20054;-73
2021/12/07 09:27:07;;;;;;;12.63;3.50;;;;;;;;;;4878159;29;20041;-73
2021/12/07 09:29:33;;;;;;;14.07;4.07;;;;;;;;;;4891620;29;20128;-73
2021/12/07 09:32:00;;;;;;;13.23;4.03;;;;;;;;;;4877393;29;20518;-73
2021/12/07 09:34:26;;;;;;;11.45;3.65;;;;;;;;;;4891907;29;20100;-73
2021/12/07 09:36:52;;;;;;;19.02;4.30;;;;;;;;;;4892322;29;20567;-72
2021/12/07 09:39:19;;;;;;;9.93;3.70;;;;;;;;;;4869540;29;20093;-73
2021/12/07 09:41:45;;;;;;;10.55;3.75;;;;;;;;;;4873172;29;20465;-73
2021/12/07 09:44:11;;;;;;;13.75;3.65;;;;;;;;;;4877050;29;21876;-73
2021/12/07 09:46:39;;;;;;;14.80;3.90;;;;;;;;;;4874326;29;20109;-73
2021/12/07 09:49:06;;;;;;;12.55;4.00;;;;;;;;;;4869348;29;20045;-73
2021/12/07 09:51:33;;;;;;;10.90;4.00;;;;;;;;;;4870575;29;20401;-73
2021/12/07 09:53:59;;;;;;;14.82;4.40;;;;;;;;;;4868196;29;20040;-73
2021/12/07 09:56:25;;;;;;;10.75;3.97;;;;;;;;;;4866329;29;20086;-73
2021/12/07 09:58:53;;;;;;;11.50;3.90;;;;;;;;;;4886084;29;20060;-73
2021/12/07 10:01:20;;;;;;;10.68;4.10;;;;;;;;;;4890310;29;20136;-73
2021/12/07 10:03:46;;;;;;;9.05;3.55;;;;;;;;;;4872594;29;20507;-73
2021/12/07 10:06:13;;;;;;;11.55;4.15;;;;;;;;;;4875325;29;20112;-73
2021/12/07 10:08:39;;;;;;;10.13;4.40;;;;;;;;;;4869941;29;20749;-73
2021/12/07 10:11:07;;;;;;;14.35;3.75;;;;;;;;;;4875873;29;20044;-73
2021/12/07 10:13:33;;;;;;;15.57;7.93;;;;;;;;;;4874331;29;20135;-73
2021/12/07 10:16:01;;;;;;;17.42;7.70;;;;;;;;;;4875862;29;20172;-73
2021/12/07 10:18:28;;;;;;;11.93;4.88;;;;;;;;;;4892556;29;20051;-73
2021/12/07 10:20:56;;;;;;;11.75;3.95;;;;;;;;;;4876987;29;20059;-73
2021/12/07 10:23:22;;;;;;;9.45;4.03;;;;;;;;;;4876673;29;20136;-73
2021/12/07 10:25:57;;;;;;;13.30;4.40;;;;;;;;;;4875277;29;20078;-73
2021/12/07 10:28:29;;;;;;;10.95;3.72;;;;;;;;;;4893643;29;20139;-73
2021/12/07 10:30:55;;;;;;;11.40;3.05;;;;;;;;;;4876994;29;20048;-73
2021/12/07 10:33:36;;;;;;;14.40;3.22;;;;;;;;;;4879317;29;20132;-74
2021/12/07 10:36:10;;;;;;;10.05;3.08;;;;;;;;;;4870965;29;20456;-73
2021/12/07 10:38:37;;;;;;;8.70;3.20;;;;;;;;;;4877824;29;20048;-73
2021/12/07 10:41:08;;;;;;;12.07;3.10;;;;;;;;;;4896109;29;20077;-73
2021/12/07 10:43:43;;;;;;;9.50;3.03;;;;;;;;;;4879507;29;20048;-73
2021/12/07 10:46:28;;;;;;;12.35;3.13;;;;;;;;;;4877282;29;20056;-75
2021/12/07 10:49:07;;;;;;;9.18;2.85;;;;;;;;;;4877898;29;20057;-73
2021/12/07 10:51:33;;;;;;;7.95;2.85;;;;;;;;;;4877864;29;20044;-73
2021/12/07 10:53:59;;;;;;;12.45;3.35;;;;;;;;;;4894417;29;20047;-74
2021/12/07 10:56:32;;;;;;;8.75;3.03;;;;;;;;;;4876936;29;20404;-74
2021/12/07 10:59:03;;;;;;;12.68;2.90;;;;;;;;;;4878048;29;20041;-73
2021/12/07 11:01:33;;;;;;;10.25;3.45;;;;;;;;;;4877931;29;20180;-73
2021/12/07 11:04:18;;;;;;;10.00;3.22;;;;;;;;;;4876765;29;20051;-73
2021/12/07 11:07:02;;;;;;;12.02;3.88;;;;;;;;;;4871154;29;20528;-73
2021/12/07 11:09:28;;;;;;;8.30;3.55;;;;;;;;;;4874905;29;20116;-73
2021/12/07 11:12:07;;;;;;;13.50;4.07;;;;;;;;;;4879322;29;20104;-73
2021/12/07 11:14:49;;;;;;;11.65;4.45;;;;;;;;;;4895342;29;20048;-73
2021/12/07 11:17:27;;;;;;;11.73;3.90;;;;;;;;;;4877607;29;20109;-73
2021/12/07 11:19:53;;;;;;;14.75;5.30;;;;;;;;;;4879119;29;20096;-73
2021/12/07 11:22:21;;;;;;;14.77;5.10;;;;;;;;;;4879873;29;20044;-73
2021/12/07 11:24:48;;;;;;;15.35;4.82;;;;;;;;;;4871199;29;20104;-73
2021/12/07 11:30:03;;;;;;;12.07;4.25;;;;;;;;;;4873471;29;20057;-73
2021/12/07 11:32:29;;;;;;;9.95;4.10;;;;;;;;;;4878895;29;20059;-73
2021/12/07 11:34:55;;;;;;;10.80;3.83;;;;;;;;;;4893589;29;20040;-74
2021/12/07 11:37:22;;;;;;;13.55;4.63;;;;;;;;;;4877793;29;20104;-73
2021/12/07 11:39:51;;;;;;;10.88;3.97;;;;;;;;;;4875746;29;20075;-73
2021/12/07 11:42:19;;;;;;;9.23;4.00;;;;;;;;;;4889657;29;20049;-73
2021/12/07 11:44:48;;;;;;;7.80;3.88;;;;;;;;;;4874309;29;20444;-74
2021/12/07 11:47:14;;;;;;;10.20;3.75;;;;;;;;;;4878600;29;20084;-73
2021/12/07 11:49:40;;;;;;;9.88;3.30;;;;;;;;;;4875657;29;20400;-74
2021/12/07 11:52:07;;;;;;;9.75;3.00;;;;;;;;;;4877293;29;20041;-74
2021/12/07 11:54:35;;;;;;;12.65;3.95;;;;;;;;;;4873521;29;20052;-74
2021/12/07 11:57:02;;;;;;;12.70;4.47;;;;;;;;;;4877171;29;20044;-74
2021/12/07 11:59:28;;;;;;;15.55;5.00;;;;;;;;;;4873880;29;20143;-74
2021/12/07 12:01:54;;;;;;;13.20;5.10;;;;;;;;;;4892845;29;20053;-74
2021/12/07 12:04:21;;;;;;;9.48;5.38;;;;;;;;;;4871320;29;20112;-74
2021/12/07 12:06:48;;;;;;;10.93;4.40;;;;;;;;;;4878122;29;20136;-74
2021/12/07 12:09:14;;;;;;;14.40;5.30;;;;;;;;;;4874405;29;20049;-74
2021/12/07 12:12:16;;;;;;;14.48;4.97;;;;;;;;;;4869857;29;20057;-74
2021/12/07 12:14:52;;;;;;;8.85;4.10;;;;;;;;;;4837263;29;20058;-74
2021/12/07 12:17:57;;;;;;;12.98;4.88;;;;;;;;;;4867691;29;20076;-74
2021/12/07 12:20:39;;;;;;;11.32;5.25;;;;;;;;;;4803996;29;20383;-74
2021/12/07 12:23:21;;;;;;;13.98;4.70;;;;;;;;;;4803391;29;20119;-74
2021/12/07 12:25:54;;;;;;;14.48;4.95;;;;;;;;;;4851468;29;20107;-74
2021/12/07 12:28:32;;;;;;;12.65;4.72;;;;;;;;;;4869700;29;20469;-74
2021/12/07 12:30:58;;;;;;;12.77;4.22;;;;;;;;;;4874282;29;20088;-74
2021/12/07 12:33:24;;;;;;;16.40;4.40;;;;;;;;;;4886581;29;20048;-73
2021/12/07 12:35:52;;;;;;;9.55;3.83;;;;;;;;;;4879336;29;20052;-74
2021/12/07 12:38:21;;;;;;;14.27;4.63;;;;;;;;;;4878535;29;20044;-74
2021/12/07 12:40:58;;;;;;;10.57;4.45;;;;;;;;;;4877013;29;20053;-73
2021/12/07 12:43:33;;;;;;;8.30;4.57;;;;;;;;;;4878855;29;20057;-74
2021/12/07 12:46:03;;;;;;;10.55;4.50;;;;;;;;;;4877926;29;20072;-74
2021/12/07 12:48:29;;;;;;;13.55;5.60;;;;;;;;;;4878209;29;20588;-74
2021/12/07 12:50:56;;;;;;;10.65;4.88;;;;;;;;;;4869233;29;20052;-74
2021/12/07 12:53:25;;;;;;;9.50;4.85;;;;;;;;;;4872210;29;20132;-74
2021/12/07 12:55:51;;;;;;;9.95;5.45;;;;;;;;;;4878797;29;20051;-74
2021/12/07 12:58:38;;;;;;;12.38;4.88;;;;;;;;;;4877741;29;20041;-74
2021/12/07 13:01:17;;;;;;;9.63;4.50;;;;;;;;;;4878956;29;20091;-74
2021/12/07 13:03:43;;;;;;;14.25;4.22;;;;;;;;;;4880238;29;20116;-74
2021/12/07 13:06:11;;;;;;;7.85;3.92;;;;;;;;;;4881198;29;20055;-74
2021/12/07 13:08:58;;;;;;;11.18;4.03;;;;;;;;;;4875279;29;20520;-74
2021/12/07 13:11:31;;;;;;;15.25;4.47;;;;;;;;;;4881354;29;20107;-74
2021/12/07 13:13:57;;;;;;;;;;;;;;;;;;4879626;29;20100;-74
2021/12/07 13:16:23;;;;;;;13.05;4.43;;;;;;;;;;4882803;29;20299;-74
2021/12/07 13:18:59;;;;;;;10.20;4.90;;;;;;;;;;4882515;29;20556;-74
2021/12/07 13:21:32;;;;;;;13.00;4.75;;;;;;;;;;4877039;29;20049;-74
2021/12/07 13:23:59;;;;;;;13.68;4.07;;;;;;;;;;4872275;29;20081;-74
2021/12/07 13:26:25;;;;;;;8.20;4.05;;;;;;;;;;4882209;29;20136;-74
2021/12/07 13:29:05;;;;;;;10.50;3.78;;;;;;;;;;4886324;29;20088;-74
2021/12/07 13:31:40;;;;;;;18.23;4.80;;;;;;;;;;4881165;29;20104;-74
2021/12/07 13:34:06;;;;;;;10.70;4.03;;;;;;;;;;4874545;29;20049;-75
2021/12/07 13:36:41;;;;;;;9.30;3.88;;;;;;;;;;4892976;29;20440;-74
2021/12/07 13:39:10;;;;;;;8.50;3.58;;;;;;;;;;4881304;29;20048;-74
2021/12/07 13:41:47;;;;;;;10.60;3.95;;;;;;;;;;4876732;29;20052;-75
2021/12/07 13:44:13;;;;;;;7.65;3.67;;;;;;;;;;4877451;29;20057;-74
2021/12/07 13:46:39;;;;;;;11.98;4.20;;;;;;;;;;4881995;29;20484;-74
2021/12/07 13:49:07;;;;;;;7.22;3.50;;;;;;;;;;4881302;29;20489;-74
2021/12/07 13:51:34;;;;;;;12.13;4.03;;;;;;;;;;4879501;29;20059;-74
2021/12/07 13:54:01;;;;;;;12.52;4.53;;;;;;;;;;4874617;29;20092;-75
2021/12/07 13:56:28;;;;;;;12.05;4.15;;;;;;;;;;4880105;29;20061;-74
2021/12/07 13:58:55;;;;;;;14.70;4.25;;;;;;;;;;4878056;29;20076;-74
2021/12/07 14:01:22;;;;;;;13.55;4.45;;;;;;;;;;4880712;29;20076;-75
2021/12/07 14:03:48;;;;;;;11.90;3.95;;;;;;;;;;4880107;29;20056;-74
2021/12/07 14:06:14;;;;;;;11.77;4.43;;;;;;;;;;4877344;29;20056;-74
2021/12/07 14:08:40;;;;;;;10.55;4.22;;;;;;;;;;4881978;29;20097;-74
2021/12/07 14:11:06;;;;;;;14.70;4.18;;;;;;;;;;4874318;29;20052;-74
2021/12/07 14:13:32;;;;;;;12.27;5.25;;;;;;;;;;4876136;29;20067;-74
2021/12/07 14:15:58;;;;;;;12.50;4.38;;;;;;;;;;4878749;29;20405;-74
2021/12/07 14:18:27;;;;;;;14.82;4.72;;;;;;;;;;4881169;29;20045;-74
2021/12/07 14:20:58;;;;;;;14.43;5.18;;;;;;;;;;4875194;29;20057;-74
2021/12/07 14:23:27;;;;;;;13.70;4.97;;;;;;;;;;4879258;29;20053;-74
2021/12/07 14:26:02;;;;;;;13.50;5.47;;;;;;;;;;4881378;29;20091;-74
2021/12/07 14:28:36;;;;;;;15.30;4.80;;;;;;;;;;4881319;29;20051;-74
2021/12/07 14:31:06;;;;;;;12.63;4.80;;;;;;;;;;4879397;29;20056;-74
2021/12/07 14:33:36;;;;;;;11.82;4.82;;;;;;;;;;4897746;29;20096;-74
2021/12/07 14:36:03;;;;;;;13.65;4.72;;;;;;;;;;4898110;29;20131;-73
2021/12/07 14:38:33;;;;;;;14.48;4.50;;;;;;;;;;4879965;29;20124;-74
2021/12/07 14:41:26;;;;;;;10.73;5.10;;;;;;;;;;4881273;29;20048;-74
2021/12/07 14:43:53;;;;;;;12.27;4.80;;;;;;;;;;4874662;29;20052;-74
2021/12/07 14:46:20;;;;;;;10.02;4.53;;;;;;;;;;4894181;29;20049;-74
2021/12/07 14:48:47;;;;;;;14.35;4.60;;;;;;;;;;4880390;29;20052;-74
2021/12/07 14:51:15;;;;;;;12.90;5.40;;;;;;;;;;4878956;29;20074;-73
2021/12/07 14:53:42;;;;;;;12.15;6.13;;;;;;;;;;4896258;29;20446;-74
2021/12/07 14:56:10;;;;;;;18.23;6.10;;;;;;;;;;4877908;29;20053;-74
2021/12/07 14:58:37;;;;;;;14.27;5.80;;;;;;;;;;4872483;29;20127;-74
2021/12/07 15:01:05;;;;;;;15.73;5.80;;;;;;;;;;4876267;29;20516;-73
2021/12/07 15:03:35;;;;;;;13.80;6.10;;;;;;;;;;4867505;29;20045;-73
2021/12/07 15:06:02;;;;;;;14.82;6.20;;;;;;;;;;4875697;29;20112;-74
2021/12/07 15:08:28;;;;;;;21.77;7.32;;;;;;;;;;4897025;29;20040;-75
2021/12/07 15:10:55;;;;;;;17.98;7.88;;;;;;;;;;4892519;29;20072;-75
2021/12/07 15:13:25;;;;;;;14.43;7.15;;;;;;;;;;4878109;29;20049;-75
2021/12/07 15:15:54;;;;;;;16.05;7.38;;;;;;;;;;4877148;29;20056;-75
2021/12/07 15:18:25;;;;;;;17.67;7.95;;;;;;;;;;4876348;29;20048;-75
2021/12/07 15:20:51;;;;;;;16.63;8.20;;;;;;;;;;4875635;29;20053;-75
2021/12/07 15:23:19;;;;;;;11.25;7.47;;;;;;;;;;4877144;29;20124;-75
2021/12/07 15:25:48;;;;;;;19.88;9.05;;;;;;;;;;4877715;29;20064;-75
2021/12/07 15:28:14;;;;;;;18.77;8.68;;;;;;;;;;4894335;29;20044;-74
2021/12/07 15:30:40;;;;;;;19.15;8.80;;;;;;;;;;4870884;29;20036;-75
2021/12/07 15:33:06;;;;;;;17.05;8.48;;;;;;;;;;4875912;29;20417;-75
2021/12/07 15:35:32;;;;;;;14.77;8.18;;;;;;;;;;4878705;29;20040;-74
2021/12/07 15:37:58;;;;;;;21.77;8.48;;;;;;;;;;4891484;29;20166;-74
2021/12/07 15:40:25;;;;;;;16.83;8.57;;;;;;;;;;4895174;29;20044;-74
2021/12/07 15:42:51;;;;;;;15.68;7.88;;;;;;;;;;4872664;29;20487;-74
2021/12/07 15:45:18;;;;;;;18.63;9.85;;;;;;;;;;4876157;29;20061;-74
2021/12/07 15:47:46;;;;;;;18.30;8.27;;;;;;;;;;4874152;29;20060;-74
2021/12/07 15:50:21;;;;;;;15.68;8.30;;;;;;;;;;4876696;29;20056;-74
2021/12/07 15:52:49;;;;;;;15.73;7.68;;;;;;;;;;4876395;29;20053;-74
2021/12/07 15:55:23;;;;;;;16.63;7.95;;;;;;;;;;4876725;29;20400;-74
2021/12/07 15:57:51;;;;;;;16.30;6.65;;;;;;;;;;4877498;29;20049;-74
2021/12/07 16:00:20;;;;;;;12.68;6.25;;;;;;;;;;4890167;29;20059;-74
2021/12/07 16:03:07;;;;;;;13.30;6.53;;;;;;;;;;4870240;29;20045;-74
2021/12/07 16:05:34;;;;;;;10.18;6.63;;;;;;;;;;4878013;29;20048;-74
2021/12/07 16:08:07;;;;;;;15.27;7.32;;;;;;;;;;4877963;29;20048;-74
2021/12/07 16:10:35;;;;;;;16.65;7.18;;;;;;;;;;4869018;29;20055;-74
2021/12/07 16:13:03;;;;;;;14.43;7.20;;;;;;;;;;4868136;29;20053;-74
2021/12/07 16:15:29;;;;;;;13.43;6.78;;;;;;;;;;4874486;29;20183;-75
2021/12/07 16:17:56;;;;;;;17.45;7.10;;;;;;;;;;4871766;29;20485;-75
2021/12/07 16:20:22;;;;;;;11.43;6.63;;;;;;;;;;4876581;29;20404;-74
2021/12/07 16:22:48;;;;;;;16.38;7.65;;;;;;;;;;4871271;29;20048;-75